Time;durP1;ratioP1;P1;durP2;ratioP2;P2;SDS_P1;SDS_P2;PMS_P1;PMS_P2;Temp;Humidity;BMP_temperature;BMP_pressure;BME280_temperature;BME280_humidity;BME280_pressure;Samples;Min_cycle;Max_cycle;Signal;HPM_P1;HPM_P2
2023/12/08 00:01:31;;;;;;;5.50;5.00;;;;;;;8.32;54.89;101718.88;106803;1262;25242;-72
2023/12/08 00:03:59;;;;;;;4.60;4.20;;;;;;;8.34;54.88;101713.52;106857;1269;22530;-72
2023/12/08 00:06:26;;;;;;;6.20;5.30;;;;;;;8.32;54.91;101711.59;106247;1258;1003205;-72
2023/12/08 00:08:55;;;;;;;4.70;4.30;;;;;;;8.35;54.96;101707.64;106293;1257;1003555;-72
2023/12/08 00:11:22;;;;;;;4.70;4.30;;;;;;;8.36;54.76;101703.48;106719;1257;22537;-71
2023/12/08 00:13:50;;;;;;;4.00;3.70;;;;;;;8.37;54.80;101705.73;106977;1257;22534;-72
2023/12/08 00:16:18;;;;;;;5.00;3.50;;;;;;;8.39;54.71;101706.96;106198;1257;1002753;-71
2023/12/08 00:18:46;;;;;;;4.70;3.70;;;;;;;8.40;54.65;101706.44;107040;1255;25419;-72
2023/12/08 00:21:15;;;;;;;4.10;3.70;;;;;;;8.41;54.59;101708.52;106929;1261;22543;-73
2023/12/08 00:23:44;;;;;;;5.90;4.80;;;;;;;8.40;54.42;101707.14;106165;1258;1004132;-72
2023/12/08 00:26:12;;;;;;;4.00;3.70;;;;;;;8.37;54.52;101702.29;106948;1254;25347;-72
2023/12/08 00:28:40;;;;;;;4.60;4.20;;;;;;;8.38;54.47;101703.33;106176;1255;1003045;-72
2023/12/08 00:31:09;;;;;;;4.70;4.00;;;;;;;8.37;54.47;101701.77;106960;1254;25296;-72
2023/12/08 00:33:37;;;;;;;5.00;4.40;;;;;;;8.36;54.34;101700.04;106869;1257;22533;-72
2023/12/08 00:36:15;;;;;;;4.20;3.30;;;;;;;8.32;54.29;101700.89;106802;1254;22541;-72
2023/12/08 00:38:44;;;;;;;4.40;4.00;;;;;;;8.31;54.45;101696.38;106817;1255;25351;-72
2023/12/08 00:41:12;;;;;;;4.10;3.60;;;;;;;8.30;54.66;101687.40;106797;1260;25380;-72
2023/12/08 00:43:40;;;;;;;4.80;3.90;;;;;;;8.29;54.29;101686.52;106633;1273;22536;-72
2023/12/08 00:46:09;;;;;;;4.30;3.90;;;;;;;8.28;54.48;101682.56;106824;1256;22648;-71
2023/12/08 00:48:37;;;;;;;4.30;3.80;;;;;;;8.27;54.50;101682.91;106820;1259;22541;-72
2023/12/08 00:51:06;;;;;;;6.50;4.00;;;;;;;8.27;54.54;101689.64;106685;1259;24385;-72
2023/12/08 00:53:34;;;;;;;4.80;4.00;;;;;;;8.27;54.56;101690.52;106872;1259;24237;-73
2023/12/08 00:56:02;;;;;;;3.80;3.50;;;;;;;8.28;54.46;101685.48;105919;1262;1002915;-72
2023/12/08 00:58:29;;;;;;;4.50;4.10;;;;;;;8.29;54.51;101687.56;106755;1261;22554;-72
2023/12/08 01:00:57;;;;;;;4.60;4.10;;;;;;;8.29;54.59;101686.36;106732;1260;22547;-72
2023/12/08 01:03:25;;;;;;;3.40;3.10;;;;;;;8.28;54.38;101682.73;106732;1272;22533;-72
2023/12/08 01:05:53;;;;;;;5.00;3.50;;;;;;;8.28;54.48;101685.33;106867;1254;22584;-72
2023/12/08 01:08:21;;;;;;;4.10;3.40;;;;;;;8.26;54.38;101678.92;106786;1260;22529;-72
2023/12/08 01:10:48;;;;;;;4.10;3.70;;;;;;;8.25;54.30;101679.77;106701;1262;22533;-71
2023/12/08 01:13:16;;;;;;;3.40;3.10;;;;;;;8.26;54.52;101683.23;106953;1260;25309;-71
2023/12/08 01:15:44;;;;;;;4.00;3.60;;;;;;;8.26;54.23;101684.97;106873;1257;22533;-72
2023/12/08 01:18:11;;;;;;;3.90;3.50;;;;;;;8.24;54.39;101683.05;107105;1256;22522;-72
2023/12/08 01:20:39;;;;;;;3.80;3.40;;;;;;;8.24;54.33;101682.88;106942;1258;22533;-72
2023/12/08 01:23:07;;;;;;;3.50;3.20;;;;;;;8.26;54.27;101686.88;106905;1260;22547;-72
2023/12/08 01:25:35;;;;;;;3.90;3.60;;;;;;;8.30;54.51;101683.59;106946;1254;22534;-71
2023/12/08 01:28:03;;;;;;;5.70;3.70;;;;;;;8.32;54.46;101683.94;107103;1257;23926;-72
2023/12/08 01:30:30;;;;;;;2.90;2.70;;;;;;;8.35;54.45;101684.83;106130;1258;1003334;-72
2023/12/08 01:32:58;;;;;;;3.60;3.20;;;;;;;8.37;54.35;101683.61;106115;1254;1003462;-72
2023/12/08 01:35:26;;;;;;;3.50;2.90;;;;;;;8.40;54.38;101682.59;107175;1268;22567;-72
2023/12/08 01:37:54;;;;;;;3.70;3.00;;;;;;;8.42;54.21;101685.36;106898;1257;22529;-72
2023/12/08 01:40:22;;;;;;;3.50;3.20;;;;;;;8.43;54.22;101681.39;106745;1260;25247;-72
2023/12/08 01:42:49;;;;;;;3.90;3.00;;;;;;;8.44;54.25;101685.20;106997;1256;25441;-72
2023/12/08 01:45:17;;;;;;;3.50;3.20;;;;;;;8.45;54.16;101685.70;107105;1257;22639;-72
2023/12/08 01:47:45;;;;;;;3.20;2.90;;;;;;;8.44;53.95;101682.95;107131;1255;22521;-71
2023/12/08 01:50:12;;;;;;;3.70;3.40;;;;;;;8.45;53.92;101683.82;106561;1258;22543;-71
2023/12/08 01:52:40;;;;;;;4.30;3.10;;;;;;;8.42;53.80;101680.68;106915;1258;22608;-71
2023/12/08 01:55:08;;;;;;;4.70;3.10;;;;;;;8.39;53.82;101668.59;105947;1259;1003571;-72
2023/12/08 01:57:36;;;;;;;3.80;3.40;;;;;;;8.36;53.90;101665.11;106919;1260;22526;-71
2023/12/08 02:00:05;;;;;;;3.50;3.00;;;;;;;8.34;53.94;101667.00;106048;1260;1003647;-71
2023/12/08 02:02:36;;;;;;;3.60;3.30;;;;;;;8.32;53.87;101670.63;106861;1255;22530;-71
2023/12/08 02:05:05;;;;;;;4.50;3.90;;;;;;;8.31;53.91;101670.46;106358;1263;22558;-72
2023/12/08 02:07:33;;;;;;;3.60;3.30;;;;;;;8.27;53.76;101673.05;106353;1264;22523;-71
2023/12/08 02:10:02;;;;;;;5.90;4.10;;;;;;;8.24;53.96;101680.11;106672;1258;22531;-71
2023/12/08 02:12:30;;;;;;;3.60;3.20;;;;;;;8.26;54.00;101676.15;106829;1258;22527;-72
2023/12/08 02:14:59;;;;;;;4.00;3.60;;;;;;;8.24;54.12;101674.74;106809;1258;22537;-71
2023/12/08 02:17:33;;;;;;;4.50;4.00;;;;;;;8.23;54.09;101676.30;106810;1263;22603;-71
2023/12/08 02:20:04;;;;;;;5.30;3.50;;;;;;;8.23;54.04;101677.16;106742;1270;25309;-72
2023/12/08 02:22:31;;;;;;;4.10;3.60;;;;;;;8.23;54.06;101682.34;106583;1261;22541;-71
2023/12/08 02:24:59;;;;;;;4.00;3.60;;;;;;;8.22;54.16;101686.31;106684;1262;22582;-72
2023/12/08 02:27:27;;;;;;;4.40;3.90;;;;;;;8.23;54.16;101686.49;106819;1259;22530;-71
2023/12/08 02:29:55;;;;;;;4.80;4.40;;;;;;;8.22;54.22;101683.72;106874;1260;22541;-71
2023/12/08 02:32:34;;;;;;;4.80;4.20;;;;;;;8.21;54.16;101681.30;106672;1260;22576;-71
2023/12/08 02:35:04;;;;;;;4.30;3.90;;;;;;;8.22;54.25;101681.82;106418;1263;22543;-71
2023/12/08 02:37:36;;;;;;;4.00;3.60;;;;;;;8.23;54.42;101684.59;106566;1258;22542;-71
2023/12/08 02:40:06;;;;;;;3.90;3.50;;;;;;;8.26;54.56;101687.04;106489;1275;22554;-71
2023/12/08 02:42:34;;;;;;;5.10;4.20;;;;;;;8.30;54.25;101689.30;106779;1256;22555;-71
2023/12/08 02:45:03;;;;;;;4.90;4.40;;;;;;;8.31;54.30;101688.78;106743;1260;22548;-71
2023/12/08 02:47:31;;;;;;;4.90;4.40;;;;;;;8.31;54.11;101689.13;106785;1256;25369;-71
2023/12/08 02:49:59;;;;;;;4.40;4.00;;;;;;;8.32;54.27;101696.22;106809;1261;22537;-73
2023/12/08 02:52:27;;;;;;;4.50;3.80;;;;;;;8.34;54.22;101700.02;106478;1262;22555;-72
2023/12/08 02:54:55;;;;;;;4.70;3.90;;;;;;;8.35;54.22;101702.95;106701;1264;22965;-71
2023/12/08 02:57:22;;;;;;;4.60;4.10;;;;;;;8.34;54.11;101702.10;106707;1261;22546;-71
2023/12/08 02:59:51;;;;;;;4.90;4.20;;;;;;;8.34;54.17;101704.69;106468;1259;25245;-71
2023/12/08 03:02:18;;;;;;;4.70;4.00;;;;;;;8.34;54.24;101700.20;106350;1264;22529;-71
2023/12/08 03:04:47;;;;;;;5.90;4.60;;;;;;;8.36;54.10;101694.15;106273;1266;22536;-72
2023/12/08 03:07:15;;;;;;;5.10;4.30;;;;;;;8.35;54.17;101686.72;106429;1263;22533;-71
2023/12/08 03:09:42;;;;;;;4.50;4.10;;;;;;;8.35;54.23;101690.52;106325;1262;22633;-72
2023/12/08 03:12:10;;;;;;;5.00;3.80;;;;;;;8.35;54.24;101693.29;106322;1265;22552;-71
2023/12/08 03:14:38;;;;;;;5.60;3.90;;;;;;;8.33;54.26;101695.88;106328;1261;25431;-71
2023/12/08 03:17:05;;;;;;;5.00;4.50;;;;;;;8.31;54.24;101695.34;106332;1266;22558;-71
2023/12/08 03:19:33;;;;;;;4.20;3.80;;;;;;;8.31;54.34;101689.80;106509;1274;22552;-71
2023/12/08 03:22:01;;;;;;;4.40;4.00;;;;;;;8.32;54.38;101690.69;106722;1255;23920;-71
2023/12/08 03:24:29;;;;;;;4.70;4.00;;;;;;;8.31;54.28;101687.92;106743;1261;25295;-71
2023/12/08 03:27:12;;;;;;;4.70;4.30;;;;;;;8.30;54.37;101686.38;103716;1299;545491;-73
2023/12/08 03:29:40;;;;;;;4.40;3.80;;;;;;;8.27;54.48;101685.31;105940;1274;23920;-73
2023/12/08 03:32:08;;;;;;;3.80;3.50;;;;;;;8.26;54.50;101687.91;106035;1272;22662;-72
2023/12/08 03:34:36;;;;;;;4.20;3.80;;;;;;;8.26;54.49;101685.67;106026;1285;22562;-72
2023/12/08 03:37:04;;;;;;;5.00;4.50;;;;;;;8.24;54.49;101686.67;105943;1277;22548;-72
2023/12/08 03:39:32;;;;;;;4.60;4.00;;;;;;;8.23;54.40;101683.73;105951;1274;25419;-72
2023/12/08 03:41:59;;;;;;;4.00;3.60;;;;;;;8.23;54.49;101683.55;105745;1273;313891;-72
2023/12/08 03:44:27;;;;;;;4.30;3.70;;;;;;;8.22;54.41;101683.02;106107;1270;22546;-72
2023/12/08 03:46:55;;;;;;;3.70;3.40;;;;;;;8.20;54.52;101679.21;106887;1265;24281;-72
2023/12/08 03:49:22;;;;;;;4.30;3.90;;;;;;;8.19;54.48;101682.16;106878;1255;22629;-73
2023/12/08 03:51:50;;;;;;;6.10;3.80;;;;;;;8.16;54.55;101680.77;106910;1254;22526;-73
2023/12/08 03:54:18;;;;;;;4.60;4.00;;;;;;;8.16;54.51;101678.35;106829;1261;26522;-73
2023/12/08 03:56:46;;;;;;;5.90;4.10;;;;;;;8.16;54.63;101680.25;106935;1261;22541;-72
2023/12/08 03:59:14;;;;;;;5.30;4.10;;;;;;;8.16;54.58;101681.80;106153;1254;1003636;-74
2023/12/08 04:01:41;;;;;;;5.50;4.20;;;;;;;8.17;54.70;101685.27;106791;1260;22529;-74
2023/12/08 04:04:11;;;;;;;4.90;3.70;;;;;;;8.16;54.59;101679.38;106853;1259;25335;-72
2023/12/08 04:06:55;;;;;;;5.50;4.90;;;;;;;8.15;54.74;101678.70;106159;1260;1003609;-72
2023/12/08 04:09:22;;;;;;;4.80;4.40;;;;;;;8.16;54.76;101677.30;106768;1261;24325;-72
2023/12/08 04:11:53;;;;;;;4.90;4.50;;;;;;;8.16;54.86;101679.73;106842;1258;22534;-72
2023/12/08 04:14:21;;;;;;;3.90;3.50;;;;;;;8.16;54.85;101682.31;106813;1260;25338;-73
2023/12/08 04:16:52;;;;;;;4.60;4.20;;;;;;;8.17;54.84;101684.40;106957;1257;22571;-73
2023/12/08 04:19:20;;;;;;;;;;;;;;;8.16;54.79;101683.02;106825;1260;23251;-72
2023/12/08 04:21:48;;;;;;;3.90;3.40;;;;;;;8.16;54.86;101684.91;105956;1264;1003572;-73
2023/12/08 04:24:16;;;;;;;4.20;3.70;;;;;;;8.16;54.94;101681.98;106123;1257;1016172;-73
2023/12/08 04:26:44;;;;;;;4.30;3.60;;;;;;;8.15;54.88;101682.84;105970;1274;1002940;-72
2023/12/08 04:29:12;;;;;;;5.90;4.70;;;;;;;8.16;54.85;101685.25;106809;1260;22542;-72
2023/12/08 04:31:40;;;;;;;6.50;4.90;;;;;;;8.17;55.11;101686.98;106913;1260;23800;-72
2023/12/08 04:34:07;;;;;;;7.30;5.10;;;;;;;8.17;55.01;101689.77;106788;1260;22539;-73
2023/12/08 04:36:35;;;;;;;4.40;3.70;;;;;;;8.17;54.94;101688.20;106817;1257;25291;-72
2023/12/08 04:39:03;;;;;;;4.70;4.20;;;;;;;8.18;54.92;101689.07;106926;1257;24249;-72
2023/12/08 04:41:31;;;;;;;4.50;4.10;;;;;;;8.18;54.85;101689.24;106058;1257;1002917;-72
2023/12/08 04:43:59;;;;;;;4.30;3.80;;;;;;;8.16;54.82;101684.56;106829;1254;25304;-72
2023/12/08 04:46:27;;;;;;;3.80;3.40;;;;;;;8.15;54.79;101687.15;106776;1259;25351;-72
2023/12/08 04:48:54;;;;;;;6.00;4.40;;;;;;;8.13;54.91;101687.33;106150;1259;1003009;-72
2023/12/08 04:51:22;;;;;;;5.40;4.60;;;;;;;8.12;54.96;101686.63;106839;1270;22542;-72
2023/12/08 04:53:50;;;;;;;5.20;4.40;;;;;;;8.11;54.93;101690.09;106831;1254;22633;-72
2023/12/08 04:56:18;;;;;;;4.20;3.80;;;;;;;7.98;55.32;101692.28;106867;1266;22539;-73
2023/12/08 04:58:47;;;;;;;3.80;3.50;;;;;;;7.88;55.75;101696.73;106715;1261;22531;-72
2023/12/08 05:01:15;;;;;;;3.90;3.20;;;;;;;7.89;55.76;101698.30;106790;1259;22777;-72
2023/12/08 05:03:43;;;;;;;3.90;3.40;;;;;;;7.90;55.84;101702.09;106962;1261;22539;-73
2023/12/08 05:06:11;;;;;;;3.70;3.40;;;;;;;7.91;55.88;101702.44;106901;1256;22558;-72
2023/12/08 05:08:39;;;;;;;3.80;2.70;;;;;;;7.90;55.76;101699.86;106945;1259;22534;-73
2023/12/08 05:11:07;;;;;;;5.00;4.50;;;;;;;7.91;55.95;101705.21;106757;1260;26513;-73
2023/12/08 05:13:35;;;;;;;5.10;4.50;;;;;;;7.94;55.92;101705.23;106846;1256;22539;-72
2023/12/08 05:16:03;;;;;;;5.60;4.80;;;;;;;7.98;55.80;101709.39;106774;1262;22533;-72
2023/12/08 05:18:30;;;;;;;4.60;4.20;;;;;;;7.98;55.68;101707.49;106923;1259;24228;-73
2023/12/08 05:20:59;;;;;;;4.40;3.60;;;;;;;7.98;55.61;101705.59;106803;1254;22538;-73
2023/12/08 05:23:26;;;;;;;6.40;5.40;;;;;;;7.98;55.63;101702.30;106897;1257;22534;-73
2023/12/08 05:25:54;;;;;;;6.10;4.20;;;;;;;7.97;55.61;101706.98;106174;1254;1003061;-73
2023/12/08 05:28:22;;;;;;;5.20;4.00;;;;;;;7.97;55.53;101709.73;106860;1254;22543;-73
2023/12/08 05:30:49;;;;;;;5.20;4.30;;;;;;;7.97;55.63;101711.13;106790;1256;22534;-73
2023/12/08 05:33:17;;;;;;;4.30;3.90;;;;;;;7.97;55.54;101714.76;106741;1262;25351;-73
2023/12/08 05:35:45;;;;;;;3.30;3.00;;;;;;;7.96;55.60;101719.23;106869;1260;25341;-74
2023/12/08 05:38:12;;;;;;;4.10;3.20;;;;;;;7.98;55.61;101725.64;106739;1257;24262;-73
2023/12/08 05:40:40;;;;;;;3.30;2.90;;;;;;;7.99;55.81;101726.16;106118;1261;1003662;-72
2023/12/08 05:43:08;;;;;;;3.30;3.00;;;;;;;7.99;55.71;101728.77;106148;1259;1003364;-73
2023/12/08 05:45:35;;;;;;;3.70;3.10;;;;;;;7.97;55.50;101729.95;106826;1258;23905;-73
2023/12/08 05:48:04;;;;;;;8.30;2.90;;;;;;;7.97;55.63;101726.33;106842;1260;25388;-73
2023/12/08 05:50:32;;;;;;;2.90;2.60;;;;;;;7.97;55.63;101731.52;106938;1259;22534;-73
2023/12/08 05:53:00;;;;;;;2.80;2.50;;;;;;;7.97;55.61;101729.62;106038;1262;1002745;-73
2023/12/08 05:55:29;;;;;;;2.90;2.60;;;;;;;7.97;55.72;101727.37;106983;1256;25300;-72
2023/12/08 05:57:56;;;;;;;4.10;2.60;;;;;;;7.99;55.71;101726.16;106779;1264;25514;-73
2023/12/08 06:00:24;;;;;;;3.10;2.80;;;;;;;8.00;55.75;101720.46;106811;1256;22530;-72
2023/12/08 06:02:51;;;;;;;5.20;3.30;;;;;;;8.00;55.68;101718.04;106094;1256;1003741;-73
2023/12/08 06:05:19;;;;;;;4.30;3.60;;;;;;;8.00;55.91;101717.00;106172;1260;1003965;-73
2023/12/08 06:07:47;;;;;;;6.40;4.50;;;;;;;8.04;55.82;101717.54;106921;1264;22522;-73
2023/12/08 06:10:15;;;;;;;7.40;4.30;;;;;;;8.06;55.93;101719.79;106998;1260;22531;-73
2023/12/08 06:12:43;;;;;;;6.00;4.40;;;;;;;8.07;55.76;101718.23;106841;1257;22533;-73
2023/12/08 06:15:10;;;;;;;3.00;2.70;;;;;;;8.08;55.70;101710.98;106811;1256;25253;-73
2023/12/08 06:17:38;;;;;;;6.40;4.00;;;;;;;8.06;55.49;101709.08;106822;1255;22549;-73
2023/12/08 06:20:09;;;;;;;11.50;6.30;;;;;;;8.07;55.78;101710.11;106952;1259;24046;-73
2023/12/08 06:22:37;;;;;;;9.20;6.00;;;;;;;8.07;55.64;101710.98;106958;1257;25246;-72
2023/12/08 06:25:05;;;;;;;6.40;3.90;;;;;;;8.06;55.62;101713.75;106845;1260;22669;-72
2023/12/08 06:27:34;;;;;;;5.40;3.90;;;;;;;8.07;55.63;101714.61;106822;1261;24281;-73
2023/12/08 06:30:01;;;;;;;5.00;4.30;;;;;;;8.07;55.77;101722.39;106048;1270;1003707;-73
2023/12/08 06:32:29;;;;;;;5.00;4.10;;;;;;;8.07;55.71;101721.00;106915;1272;22526;-72
2023/12/08 06:34:57;;;;;;;5.00;3.50;;;;;;;8.07;55.76;101722.23;106891;1256;22537;-72
2023/12/08 06:37:25;;;;;;;3.90;3.40;;;;;;;8.08;55.80;101722.56;106883;1259;25245;-72
2023/12/08 06:39:53;;;;;;;4.20;3.80;;;;;;;8.10;55.83;101728.95;106077;1261;1002918;-72
2023/12/08 06:42:21;;;;;;;6.80;4.00;;;;;;;8.10;55.67;101720.66;106093;1258;1003639;-73
2023/12/08 06:44:49;;;;;;;3.20;2.90;;;;;;;8.11;55.82;101729.48;106098;1259;1003029;-72
2023/12/08 06:47:17;;;;;;;4.00;3.10;;;;;;;8.13;55.85;101731.91;106172;1257;1003648;-72
2023/12/08 06:49:44;;;;;;;3.80;3.30;;;;;;;8.11;55.61;101732.77;106233;1257;1003765;-73
2023/12/08 06:52:12;;;;;;;4.90;3.80;;;;;;;8.11;55.63;101731.91;106230;1254;1003025;-72
2023/12/08 06:54:40;;;;;;;3.60;3.30;;;;;;;8.12;55.75;101734.67;106885;1256;23905;-73
2023/12/08 06:57:08;;;;;;;3.80;3.50;;;;;;;8.15;55.75;101734.50;106804;1256;24381;-73
2023/12/08 06:59:36;;;;;;;4.20;3.50;;;;;;;8.18;55.96;101736.77;106736;1262;24629;-73
2023/12/08 07:02:04;;;;;;;3.30;3.00;;;;;;;8.22;55.92;101741.63;106762;1266;24225;-73
2023/12/08 07:04:31;;;;;;;3.00;2.70;;;;;;;8.26;55.81;101752.73;106876;1259;22659;-72
2023/12/08 07:06:59;;;;;;;3.60;2.60;;;;;;;8.27;55.64;101758.09;106883;1263;22581;-73
2023/12/08 07:09:27;;;;;;;3.20;2.70;;;;;;;8.28;55.60;101757.23;106882;1259;22538;-73
2023/12/08 07:11:55;;;;;;;3.30;3.00;;;;;;;8.30;55.64;101754.30;106770;1261;22524;-72
2023/12/08 07:14:25;;;;;;;2.90;2.60;;;;;;;8.30;55.31;101757.41;106885;1260;22530;-72
2023/12/08 07:16:53;;;;;;;3.20;2.90;;;;;;;8.30;55.38;101746.88;106728;1256;22529;-72
2023/12/08 07:19:21;;;;;;;3.50;3.10;;;;;;;8.31;55.42;101743.23;106922;1257;25294;-72
2023/12/08 07:21:49;;;;;;;3.90;2.90;;;;;;;8.32;55.36;101739.27;106814;1254;22533;-72
2023/12/08 07:24:17;;;;;;;3.10;2.60;;;;;;;8.31;55.37;101740.14;106751;1256;24274;-72
2023/12/08 07:26:45;;;;;;;3.40;2.30;;;;;;;8.33;55.46;101736.50;106109;1256;1003215;-71
2023/12/08 07:29:13;;;;;;;3.20;2.90;;;;;;;8.34;55.38;101732.54;106696;1255;22530;-72
2023/12/08 07:31:41;;;;;;;2.80;2.60;;;;;;;8.34;55.40;101727.17;106039;1256;1003057;-72
2023/12/08 07:34:08;;;;;;;3.00;2.70;;;;;;;8.34;55.36;101720.77;106876;1256;22550;-72
2023/12/08 07:36:36;;;;;;;3.00;2.60;;;;;;;8.35;55.41;101719.55;106737;1262;22529;-72
2023/12/08 07:39:04;;;;;;;3.40;2.80;;;;;;;8.36;55.35;101722.15;106779;1260;22533;-72
2023/12/08 07:41:32;;;;;;;2.70;2.20;;;;;;;8.35;55.41;101727.16;106795;1256;22637;-72
2023/12/08 07:44:00;;;;;;;2.70;2.40;;;;;;;8.36;55.43;101729.94;106838;1262;22529;-72
2023/12/08 07:46:28;;;;;;;2.70;2.50;;;;;;;8.37;55.60;101732.19;106974;1256;22521;-72
2023/12/08 07:48:55;;;;;;;3.50;3.00;;;;;;;8.37;55.58;101728.91;106855;1256;24241;-72
2023/12/08 07:51:23;;;;;;;3.20;2.90;;;;;;;8.38;55.60;101729.61;106818;1259;22553;-72
2023/12/08 07:53:51;;;;;;;3.50;3.10;;;;;;;8.39;55.66;101725.98;106764;1259;25295;-72
2023/12/08 07:56:22;;;;;;;3.20;2.90;;;;;;;8.39;55.59;101727.20;107086;1255;24090;-72
2023/12/08 07:58:50;;;;;;;3.50;2.90;;;;;;;8.40;55.78;101725.46;106832;1256;24250;-72
2023/12/08 08:01:17;;;;;;;3.50;2.90;;;;;;;8.40;55.76;101723.39;106783;1259;22519;-72
2023/12/08 08:03:45;;;;;;;3.20;2.90;;;;;;;8.42;55.74;101726.86;106780;1257;22627;-72
2023/12/08 08:06:13;;;;;;;4.30;3.10;;;;;;;8.43;55.70;101732.04;106736;1259;22527;-73
2023/12/08 08:08:41;;;;;;;4.10;3.00;;;;;;;8.45;55.71;101742.23;106087;1259;1003498;-72
2023/12/08 08:11:09;;;;;;;4.60;3.30;;;;;;;8.48;55.74;101739.48;106136;1259;1002979;-72
2023/12/08 08:13:36;;;;;;;4.40;3.10;;;;;;;8.48;55.64;101742.77;106682;1259;22552;-72
2023/12/08 08:16:04;;;;;;;4.00;2.70;;;;;;;8.48;55.67;101744.16;106730;1262;22906;-72
2023/12/08 08:18:32;;;;;;;3.20;2.80;;;;;;;8.47;55.58;101745.54;106026;1256;1003284;-72
2023/12/08 08:21:00;;;;;;;4.90;3.10;;;;;;;8.46;55.59;101745.02;106834;1259;24192;-72
2023/12/08 08:23:28;;;;;;;7.80;5.30;;;;;;;8.46;55.53;101746.40;106841;1259;22529;-72
2023/12/08 08:25:56;;;;;;;6.70;4.40;;;;;;;8.46;55.47;101750.38;106863;1259;22530;-72
2023/12/08 08:28:26;;;;;;;8.00;4.40;;;;;;;8.46;55.71;101753.66;106882;1266;22534;-72
2023/12/08 08:30:54;;;;;;;7.40;4.80;;;;;;;8.46;55.57;101752.63;106987;1256;22522;-72
2023/12/08 08:33:22;;;;;;;7.30;4.70;;;;;;;8.46;55.43;101753.14;106893;1259;25247;-72
2023/12/08 08:35:51;;;;;;;4.30;3.70;;;;;;;8.48;55.76;101748.30;106861;1272;25379;-72
2023/12/08 08:38:19;;;;;;;6.80;4.70;;;;;;;8.51;55.54;101745.02;106941;1260;22536;-73
2023/12/08 08:40:47;;;;;;;7.10;5.10;;;;;;;8.53;55.60;101741.40;106786;1270;25340;-72
2023/12/08 08:43:14;;;;;;;8.50;5.30;;;;;;;8.53;55.34;101737.59;106905;1256;25572;-72
2023/12/08 08:45:42;;;;;;;7.00;5.10;;;;;;;8.53;55.54;101735.87;106754;1256;22996;-73
2023/12/08 08:48:10;;;;;;;5.80;4.60;;;;;;;8.54;55.38;101734.48;106867;1257;25253;-72
2023/12/08 08:50:38;;;;;;;6.70;4.60;;;;;;;8.55;55.66;101729.98;106964;1259;22533;-72
2023/12/08 08:53:16;;;;;;;5.30;4.40;;;;;;;8.57;55.45;101731.38;106810;1259;22527;-72
2023/12/08 08:55:45;;;;;;;6.20;4.80;;;;;;;8.59;55.46;101728.44;106921;1260;22543;-73
2023/12/08 08:58:12;;;;;;;6.80;5.00;;;;;;;8.56;55.27;101727.56;106864;1261;22528;-72
2023/12/08 09:00:40;;;;;;;8.10;5.10;;;;;;;8.53;55.10;101732.58;106012;1259;1003012;-72
2023/12/08 09:06:32;;;;;;;5.00;4.00;;;;;;;8.56;55.23;101732.59;103611;1299;545685;-73
2023/12/08 09:09:00;;;;;;;3.70;3.40;;;;;;;8.53;55.34;101732.42;105986;1270;23881;-73
2023/12/08 09:11:28;;;;;;;3.90;3.50;;;;;;;8.54;55.28;101730.16;105948;1268;22575;-73
2023/12/08 09:13:55;;;;;;;3.30;3.00;;;;;;;8.55;55.23;101730.17;106128;1265;25372;-73
2023/12/08 09:16:23;;;;;;;3.60;2.80;;;;;;;8.56;55.27;101726.52;106293;1266;25354;-74
2023/12/08 09:18:51;;;;;;;3.70;2.90;;;;;;;8.57;55.37;101726.02;106505;1264;25387;-73
2023/12/08 09:21:18;;;;;;;4.90;3.70;;;;;;;8.57;55.40;101720.30;106316;1262;345356;-73
2023/12/08 09:23:47;;;;;;;3.40;3.00;;;;;;;8.57;55.25;101718.58;106516;1259;22531;-74
2023/12/08 09:26:39;;;;;;;;;;;;;;;8.57;55.34;101720.99;106549;1264;22511;-72
2023/12/08 09:29:09;;;;;;;3.00;2.50;;;;;;;8.58;55.36;101721.34;105894;1277;1002970;-71
2023/12/08 09:31:37;;;;;;;3.40;3.10;;;;;;;8.57;55.33;101723.27;106659;1261;22536;-73
2023/12/08 09:34:04;;;;;;;3.40;3.10;;;;;;;8.55;55.33;101726.37;106649;1272;25355;-72
2023/12/08 09:36:33;;;;;;;3.30;3.00;;;;;;;8.52;55.34;101728.09;106406;1265;22377;-73
2023/12/08 09:39:04;;;;;;;4.80;3.70;;;;;;;8.48;55.45;101721.67;106592;1262;22536;-72
2023/12/08 09:41:31;;;;;;;4.60;4.20;;;;;;;8.46;55.48;101718.39;105988;1258;1002981;-72
2023/12/08 09:44:03;;;;;;;4.30;3.80;;;;;;;8.46;55.60;101719.09;106689;1276;22533;-72
2023/12/08 09:46:31;;;;;;;4.40;4.00;;;;;;;8.47;55.71;101718.75;106873;1258;22533;-72
2023/12/08 09:48:58;;;;;;;4.50;3.90;;;;;;;8.50;55.79;101719.95;106889;1271;24253;-72
2023/12/08 09:51:27;;;;;;;5.50;3.40;;;;;;;8.53;55.67;101713.21;106793;1260;24254;-72
2023/12/08 09:53:55;;;;;;;3.80;3.50;;;;;;;8.55;55.65;101713.39;106869;1254;25361;-72
2023/12/08 09:56:23;;;;;;;3.90;3.40;;;;;;;8.58;55.61;101714.61;106954;1269;25609;-72
2023/12/08 09:58:51;;;;;;;3.80;3.40;;;;;;;8.60;55.63;101712.89;106794;1267;22557;-72
2023/12/08 10:01:20;;;;;;;3.50;3.20;;;;;;;8.63;55.52;101713.57;106807;1260;22526;-73
2023/12/08 10:03:48;;;;;;;3.70;3.10;;;;;;;8.64;55.50;101710.98;107038;1254;22545;-71
2023/12/08 10:06:16;;;;;;;3.60;3.20;;;;;;;8.66;55.50;101708.39;106982;1257;22537;-72
2023/12/08 10:08:44;;;;;;;3.70;3.30;;;;;;;8.68;55.32;101710.47;106908;1268;22649;-72
2023/12/08 10:11:11;;;;;;;4.50;3.30;;;;;;;8.66;55.14;101711.33;106204;1270;1003327;-72
2023/12/08 10:13:39;;;;;;;3.40;3.10;;;;;;;8.65;55.12;101709.42;106192;1271;1003205;-72
2023/12/08 10:16:07;;;;;;;3.80;3.50;;;;;;;8.64;55.27;101708.05;106129;1271;1002858;-71
2023/12/08 10:18:36;;;;;;;3.90;3.40;;;;;;;8.60;55.14;101703.55;106817;1257;22530;-72
2023/12/08 10:21:14;;;;;;;5.20;4.10;;;;;;;8.57;55.31;101705.08;106940;1269;22638;-72
2023/12/08 10:23:43;;;;;;;5.30;4.10;;;;;;;8.58;55.34;101704.05;106949;1268;22522;-72
2023/12/08 10:26:12;;;;;;;5.20;4.10;;;;;;;8.58;55.51;101705.08;106837;1270;22542;-72
2023/12/08 10:28:42;;;;;;;6.80;5.20;;;;;;;8.58;55.39;101703.19;106859;1268;25249;-72
2023/12/08 10:31:09;;;;;;;6.50;4.20;;;;;;;8.57;55.33;101703.70;106889;1273;24292;-72
2023/12/08 10:37:00;;;;;;;5.50;4.10;;;;;;;8.62;55.46;101699.92;103701;1306;544760;-74
2023/12/08 10:39:28;;;;;;;6.50;4.30;;;;;;;8.58;55.45;101705.09;105982;1271;23493;-74
2023/12/08 10:41:55;;;;;;;4.30;3.80;;;;;;;8.59;55.25;101705.27;106032;1284;22546;-74
2023/12/08 10:44:23;;;;;;;3.90;3.50;;;;;;;8.61;55.44;101699.20;106435;1268;22537;-74
2023/12/08 10:46:53;;;;;;;8.20;4.30;;;;;;;8.61;55.43;101695.23;106378;1275;24233;-74
2023/12/08 10:49:21;;;;;;;3.90;3.30;;;;;;;8.63;55.41;101695.08;106456;1275;24213;-73
2023/12/08 10:51:49;;;;;;;4.90;3.60;;;;;;;8.65;55.35;101696.63;106354;1268;293353;-74
2023/12/08 10:54:17;;;;;;;4.20;3.30;;;;;;;8.65;55.40;101700.95;106559;1262;22526;-73
2023/12/08 10:56:46;;;;;;;4.70;4.00;;;;;;;8.67;55.28;101696.80;106604;1272;24226;-74
2023/12/08 10:59:18;;;;;;;7.30;4.60;;;;;;;8.68;55.25;101696.46;106736;1272;23889;-74
2023/12/08 11:01:46;;;;;;;4.70;3.90;;;;;;;8.68;55.22;101697.66;106824;1275;22541;-74
2023/12/08 11:04:19;;;;;;;6.10;3.80;;;;;;;8.69;55.23;101691.45;106723;1262;22537;-74
2023/12/08 11:07:00;;;;;;;8.80;5.20;;;;;;;8.70;54.99;101690.22;106040;1271;1003037;-73
2023/12/08 11:09:28;;;;;;;7.60;4.30;;;;;;;8.71;55.15;101688.84;105954;1262;1017412;-74
2023/12/08 11:11:58;;;;;;;5.40;4.30;;;;;;;8.72;55.10;101689.37;106440;1272;24547;-73
2023/12/08 11:14:48;;;;;;;4.60;3.60;;;;;;;8.73;55.03;101695.77;106068;1272;1002919;-73
2023/12/08 11:17:20;;;;;;;5.70;4.20;;;;;;;8.71;55.05;101693.00;106409;1272;22530;-74
2023/12/08 11:19:47;;;;;;;9.00;5.50;;;;;;;8.70;55.03;101693.86;106667;1277;22523;-73
2023/12/08 11:22:15;;;;;;;6.90;5.20;;;;;;;8.69;55.02;101695.25;106483;1276;24250;-73
2023/12/08 11:24:43;;;;;;;7.40;6.10;;;;;;;8.67;55.03;101689.38;106036;1263;1003686;-73
2023/12/08 11:27:21;;;;;;;8.40;6.00;;;;;;;8.67;55.32;101680.71;105728;1278;1003037;-74
2023/12/08 11:30:08;;;;;;;4.60;4.00;;;;;;;8.65;55.19;101677.77;106736;1260;22551;-74
2023/12/08 11:32:41;;;;;;;5.80;4.90;;;;;;;8.63;55.11;101677.42;105989;1262;1015963;-71
2023/12/08 11:35:12;;;;;;;4.90;3.50;;;;;;;8.59;55.24;101670.33;106590;1263;25263;-71